Aviation Digital Data Service (ADDS)

Output produced by METARs form (0150 UTC 29 August 2016)
found at http://aviationweather.gov/adds/metars/
 
KLCH 290053Z 03004KT 10SM CLR 25/24 A2994 RMK AO2 SLP145 T02500239 $